sensor_id;sensor_type;location;lat;lon;timestamp;pressure;altitude;pressure_sealevel;temperature;humidity
12913;BME280;6524;51.368;11.984;2023-05-22T04:05:28;100201.78;;;12.16;71.04
12913;BME280;6524;51.368;11.984;2023-05-22T04:10:30;100194.06;;;12.13;71.22
12913;BME280;6524;51.368;11.984;2023-05-22T04:15:31;100199.63;;;12.32;70.84
12913;BME280;6524;51.368;11.984;2023-05-22T04:20:35;100208.56;;;12.42;70.47
12913;BME280;6524;51.368;11.984;2023-05-22T04:25:35;100193.19;;;12.47;69.92
12913;BME280;6524;51.368;11.984;2023-05-22T04:30:36;100207.13;;;12.49;69.98
12913;BME280;6524;51.368;11.984;2023-05-22T04:35:36;100195.47;;;12.52;69.95
12913;BME280;6524;51.368;11.984;2023-05-22T06:49:51;100206.91;;;16.49;57.39
12913;BME280;6524;51.368;11.984;2023-05-22T07:05:12;100225.28;;;18.26;51.86
12913;BME280;6524;51.368;11.984;2023-05-22T07:10:12;100219.84;;;18.53;51.31
12913;BME280;6524;51.368;11.984;2023-05-22T07:15:13;100212.16;;;18.50;51.60
12913;BME280;6524;51.368;11.984;2023-05-22T07:20:14;100216.75;;;19.27;50.03
12913;BME280;6524;51.368;11.984;2023-05-22T07:25:15;100207.59;;;19.45;50.07
12913;BME280;6524;51.368;11.984;2023-05-22T07:30:15;100215.03;;;20.58;46.80
12913;BME280;6524;51.368;11.984;2023-05-22T07:35:16;100217.25;;;21.18;45.06
12913;BME280;6524;51.368;11.984;2023-05-22T07:40:16;100217.34;;;21.64;44.07
12913;BME280;6524;51.368;11.984;2023-05-22T07:45:17;100213.66;;;21.65;43.92
12913;BME280;6524;51.368;11.984;2023-05-22T08:31:45;100210.94;;;22.34;41.45
12913;BME280;6524;51.368;11.984;2023-05-22T08:36:46;100208.00;;;22.44;42.95
12913;BME280;6524;51.368;11.984;2023-05-22T08:41:48;100205.94;;;22.46;41.89
12913;BME280;6524;51.368;11.984;2023-05-22T08:46:50;100199.75;;;22.60;40.99
12913;BME280;6524;51.368;11.984;2023-05-22T08:51:56;100192.88;;;22.73;40.63
12913;BME280;6524;51.368;11.984;2023-05-22T08:56:59;100177.00;;;23.07;39.87
12913;BME280;6524;51.368;11.984;2023-05-22T09:02:00;100164.13;;;23.03;40.10
12913;BME280;6524;51.368;11.984;2023-05-22T09:07:01;100167.88;;;23.81;38.63
12913;BME280;6524;51.368;11.984;2023-05-22T09:12:09;100167.50;;;23.84;38.93
12913;BME280;6524;51.368;11.984;2023-05-22T09:17:13;100166.34;;;23.72;39.77
12913;BME280;6524;51.368;11.984;2023-05-22T09:22:14;100154.00;;;23.84;39.42
12913;BME280;6524;51.368;11.984;2023-05-22T09:27:15;100159.59;;;24.32;38.55
12913;BME280;6524;51.368;11.984;2023-05-22T09:32:16;100159.91;;;24.16;38.45
12913;BME280;6524;51.368;11.984;2023-05-22T09:37:17;100148.16;;;24.30;38.10
12913;BME280;6524;51.368;11.984;2023-05-22T09:42:18;100157.75;;;24.67;37.01
12913;BME280;6524;51.368;11.984;2023-05-22T09:47:18;100156.78;;;25.23;37.29
12913;BME280;6524;51.368;11.984;2023-05-22T09:52:20;100156.88;;;25.90;35.78
12913;BME280;6524;51.368;11.984;2023-05-22T09:57:24;100151.88;;;25.93;35.06
12913;BME280;6524;51.368;11.984;2023-05-22T10:02:26;100148.56;;;25.84;35.43
12913;BME280;6524;51.368;11.984;2023-05-22T10:07:35;100141.91;;;24.58;36.07
12913;BME280;6524;51.368;11.984;2023-05-22T10:12:44;100124.44;;;24.47;36.44
12913;BME280;6524;51.368;11.984;2023-05-22T10:17:48;100131.78;;;25.14;34.85
12913;BME280;6524;51.368;11.984;2023-05-22T10:22:49;100127.28;;;25.28;33.28
12913;BME280;6524;51.368;11.984;2023-05-22T10:27:53;100125.25;;;25.50;32.34
12913;BME280;6524;51.368;11.984;2023-05-22T10:43:30;100113.91;;;25.07;31.83
12913;BME280;6524;51.368;11.984;2023-05-22T10:48:39;100114.44;;;25.70;30.14
12913;BME280;6524;51.368;11.984;2023-05-22T10:53:42;100117.38;;;25.89;30.04
12913;BME280;6524;51.368;11.984;2023-05-22T10:58:54;100116.91;;;26.31;29.61
12913;BME280;6524;51.368;11.984;2023-05-22T11:14:19;100108.59;;;25.86;28.28
12913;BME280;6524;51.368;11.984;2023-05-22T11:19:20;100100.50;;;25.73;29.79
12913;BME280;6524;51.368;11.984;2023-05-22T11:24:20;100088.63;;;25.48;29.64
12913;BME280;6524;51.368;11.984;2023-05-22T11:29:21;100083.03;;;25.82;29.64
12913;BME280;6524;51.368;11.984;2023-05-22T11:34:25;100079.03;;;26.18;30.74
12913;BME280;6524;51.368;11.984;2023-05-22T11:39:26;100079.50;;;26.02;29.67
12913;BME280;6524;51.368;11.984;2023-05-22T11:44:26;100075.69;;;26.29;29.53
12913;BME280;6524;51.368;11.984;2023-05-22T11:49:27;100070.81;;;27.03;29.31
12913;BME280;6524;51.368;11.984;2023-05-22T11:54:31;100069.22;;;26.89;29.39
12913;BME280;6524;51.368;11.984;2023-05-22T11:59:31;100062.31;;;26.93;28.99
12913;BME280;6524;51.368;11.984;2023-05-22T12:04:32;100065.78;;;27.13;28.29
12913;BME280;6524;51.368;11.984;2023-05-22T12:09:32;100063.22;;;27.18;28.89
12913;BME280;6524;51.368;11.984;2023-05-22T12:14:33;100068.41;;;26.82;28.88
12913;BME280;6524;51.368;11.984;2023-05-22T12:19:33;100050.69;;;27.24;28.09
12913;BME280;6524;51.368;11.984;2023-05-22T12:24:41;100053.41;;;27.49;27.53
12913;BME280;6524;51.368;11.984;2023-05-22T12:29:45;100049.38;;;27.83;27.79
12913;BME280;6524;51.368;11.984;2023-05-22T12:34:46;100047.75;;;28.19;26.90
12913;BME280;6524;51.368;11.984;2023-05-22T12:39:56;100045.84;;;28.01;26.32
12913;BME280;6524;51.368;11.984;2023-05-22T12:44:57;100038.66;;;28.13;27.40
12913;BME280;6524;51.368;11.984;2023-05-22T12:49:59;100044.53;;;27.67;26.47
12913;BME280;6524;51.368;11.984;2023-05-22T12:54:59;100043.22;;;27.69;25.80
12913;BME280;6524;51.368;11.984;2023-05-22T13:00:00;100036.69;;;28.39;25.61
12913;BME280;6524;51.368;11.984;2023-05-22T13:05:00;100037.50;;;28.88;25.16
12913;BME280;6524;51.368;11.984;2023-05-22T13:10:02;100028.34;;;28.71;25.72
12913;BME280;6524;51.368;11.984;2023-05-22T13:15:03;100028.09;;;28.24;25.60
12913;BME280;6524;51.368;11.984;2023-05-22T13:20:05;100021.97;;;28.28;26.27
12913;BME280;6524;51.368;11.984;2023-05-22T13:25:05;100015.41;;;28.18;24.82
12913;BME280;6524;51.368;11.984;2023-05-22T13:30:06;100021.84;;;28.05;26.19
12913;BME280;6524;51.368;11.984;2023-05-22T13:35:07;100015.63;;;27.22;26.01
12913;BME280;6524;51.368;11.984;2023-05-22T13:40:08;100017.28;;;27.55;26.61
12913;BME280;6524;51.368;11.984;2023-05-22T13:45:09;100004.31;;;27.82;26.42
12913;BME280;6524;51.368;11.984;2023-05-22T13:50:10;100007.97;;;27.88;25.78
12913;BME280;6524;51.368;11.984;2023-05-22T13:55:10;99998.91;;;27.76;25.67
12913;BME280;6524;51.368;11.984;2023-05-22T14:00:11;99995.75;;;27.60;26.20
12913;BME280;6524;51.368;11.984;2023-05-22T14:05:12;99983.66;;;27.56;26.83
12913;BME280;6524;51.368;11.984;2023-05-22T14:10:12;99977.28;;;27.69;25.82
12913;BME280;6524;51.368;11.984;2023-05-22T14:15:13;99974.44;;;27.64;26.14
12913;BME280;6524;51.368;11.984;2023-05-22T14:20:15;99975.53;;;27.31;25.36
12913;BME280;6524;51.368;11.984;2023-05-22T14:25:15;99969.06;;;27.57;25.90
12913;BME280;6524;51.368;11.984;2023-05-22T14:30:16;99966.06;;;27.15;25.96
12913;BME280;6524;51.368;11.984;2023-05-22T14:35:16;99955.09;;;27.29;26.46
12913;BME280;6524;51.368;11.984;2023-05-22T14:40:17;99943.94;;;27.18;26.10
12913;BME280;6524;51.368;11.984;2023-05-22T14:45:18;99944.59;;;27.39;26.03
12913;BME280;6524;51.368;11.984;2023-05-22T14:50:18;99939.16;;;26.89;26.35
12913;BME280;6524;51.368;11.984;2023-05-22T14:55:19;99939.03;;;27.09;27.35
12913;BME280;6524;51.368;11.984;2023-05-22T15:00:20;99938.13;;;26.51;26.93
12913;BME280;6524;51.368;11.984;2023-05-22T15:05:20;99927.81;;;26.28;27.52
12913;BME280;6524;51.368;11.984;2023-05-22T15:10:22;99933.22;;;26.28;26.58
12913;BME280;6524;51.368;11.984;2023-05-22T15:15:22;99929.41;;;25.98;26.42
12913;BME280;6524;51.368;11.984;2023-05-22T15:20:22;99935.47;;;25.86;26.90
12913;BME280;6524;51.368;11.984;2023-05-22T15:25:23;99922.66;;;25.42;27.30
12913;BME280;6524;51.368;11.984;2023-05-22T15:30:23;99908.53;;;25.20;28.07
12913;BME280;6524;51.368;11.984;2023-05-22T15:35:23;99911.88;;;25.09;28.13
12913;BME280;6524;51.368;11.984;2023-05-22T15:40:24;99904.81;;;25.08;28.03
12913;BME280;6524;51.368;11.984;2023-05-22T15:45:24;99908.75;;;25.32;28.30
12913;BME280;6524;51.368;11.984;2023-05-22T15:50:25;99902.91;;;24.75;28.36
12913;BME280;6524;51.368;11.984;2023-05-22T15:55:25;99901.88;;;24.89;27.61
12913;BME280;6524;51.368;11.984;2023-05-22T16:00:26;99895.53;;;24.42;27.79
12913;BME280;6524;51.368;11.984;2023-05-22T16:05:26;99902.22;;;24.46;27.89
12913;BME280;6524;51.368;11.984;2023-05-22T16:10:27;99891.78;;;24.30;27.90
12913;BME280;6524;51.368;11.984;2023-05-22T16:15:27;99884.69;;;24.09;29.65
12913;BME280;6524;51.368;11.984;2023-05-22T16:20:28;99881.06;;;24.57;29.43
12913;BME280;6524;51.368;11.984;2023-05-22T16:25:28;99893.72;;;24.49;29.30
12913;BME280;6524;51.368;11.984;2023-05-22T16:35:31;99879.78;;;24.46;28.12
12913;BME280;6524;51.368;11.984;2023-05-22T16:40:32;99882.59;;;24.18;28.26
12913;BME280;6524;51.368;11.984;2023-05-22T16:45:32;99892.59;;;24.31;27.68
12913;BME280;6524;51.368;11.984;2023-05-22T16:50:33;99879.63;;;23.99;28.67
12913;BME280;6524;51.368;11.984;2023-05-22T16:55:33;99881.56;;;23.71;33.90
12913;BME280;6524;51.368;11.984;2023-05-22T17:00:35;99883.16;;;23.58;31.26
12913;BME280;6524;51.368;11.984;2023-05-22T17:05:35;99887.94;;;23.56;31.49
12913;BME280;6524;51.368;11.984;2023-05-22T17:10:36;99876.44;;;23.41;32.06
12913;BME280;6524;51.368;11.984;2023-05-22T17:15:36;99876.13;;;22.80;32.96
12913;BME280;6524;51.368;11.984;2023-05-22T17:20:36;99871.06;;;22.92;32.95
12913;BME280;6524;51.368;11.984;2023-05-22T17:25:37;99871.50;;;22.95;32.78
12913;BME280;6524;51.368;11.984;2023-05-22T17:30:37;99875.81;;;22.89;33.06
12913;BME280;6524;51.368;11.984;2023-05-22T17:35:38;99870.63;;;22.45;32.85
12913;BME280;6524;51.368;11.984;2023-05-22T17:40:38;99869.91;;;22.58;32.89
12913;BME280;6524;51.368;11.984;2023-05-22T17:45:39;99855.56;;;21.63;34.31
12913;BME280;6524;51.368;11.984;2023-05-22T17:50:39;99855.84;;;21.68;34.02
12913;BME280;6524;51.368;11.984;2023-05-22T17:55:39;99864.53;;;21.85;33.98
12913;BME280;6524;51.368;11.984;2023-05-22T18:00:40;99854.81;;;21.69;34.13
12913;BME280;6524;51.368;11.984;2023-05-22T18:05:40;99847.41;;;21.42;34.84
12913;BME280;6524;51.368;11.984;2023-05-22T18:10:42;99852.94;;;21.25;34.47
12913;BME280;6524;51.368;11.984;2023-05-22T18:15:43;99852.66;;;21.20;34.55
12913;BME280;6524;51.368;11.984;2023-05-22T18:20:43;99852.03;;;20.80;34.95
12913;BME280;6524;51.368;11.984;2023-05-22T18:25:45;99862.44;;;20.75;35.57
12913;BME280;6524;51.368;11.984;2023-05-22T18:30:45;99854.34;;;20.60;34.76
12913;BME280;6524;51.368;11.984;2023-05-22T18:35:48;99855.34;;;20.36;35.79
12913;BME280;6524;51.368;11.984;2023-05-22T18:40:49;99855.78;;;20.17;35.65
12913;BME280;6524;51.368;11.984;2023-05-22T18:45:51;99868.69;;;20.22;35.03
12913;BME280;6524;51.368;11.984;2023-05-22T18:50:51;99870.53;;;21.13;33.69
12913;BME280;6524;51.368;11.984;2023-05-22T18:55:52;99877.34;;;21.01;34.01
12913;BME280;6524;51.368;11.984;2023-05-22T19:00:52;99883.78;;;21.15;33.40
12913;BME280;6524;51.368;11.984;2023-05-22T19:05:54;99892.31;;;21.18;34.28
12913;BME280;6524;51.368;11.984;2023-05-22T19:10:56;99890.38;;;20.04;35.90
12913;BME280;6524;51.368;11.984;2023-05-22T19:15:58;99895.81;;;19.87;36.73
12913;BME280;6524;51.368;11.984;2023-05-22T19:20:59;99892.19;;;19.64;38.72
12913;BME280;6524;51.368;11.984;2023-05-22T19:25:59;99891.09;;;19.34;39.82
12913;BME280;6524;51.368;11.984;2023-05-22T19:31:00;99889.94;;;19.12;39.80
12913;BME280;6524;51.368;11.984;2023-05-22T19:36:02;99905.34;;;19.02;41.01
12913;BME280;6524;51.368;11.984;2023-05-22T19:41:05;99915.34;;;18.91;40.29
12913;BME280;6524;51.368;11.984;2023-05-22T19:46:05;99933.91;;;18.85;41.14
12913;BME280;6524;51.368;11.984;2023-05-22T19:51:06;99961.84;;;18.74;37.71
12913;BME280;6524;51.368;11.984;2023-05-22T19:56:07;99971.22;;;18.86;37.48
12913;BME280;6524;51.368;11.984;2023-05-22T20:01:08;99960.47;;;18.70;38.55
12913;BME280;6524;51.368;11.984;2023-05-22T20:06:08;99959.50;;;18.79;38.48
12913;BME280;6524;51.368;11.984;2023-05-22T20:11:08;99945.13;;;18.80;38.23
12913;BME280;6524;51.368;11.984;2023-05-22T20:16:09;99939.81;;;19.05;37.73
12913;BME280;6524;51.368;11.984;2023-05-22T20:21:11;99935.41;;;18.71;38.90
12913;BME280;6524;51.368;11.984;2023-05-22T20:26:12;99922.03;;;18.79;39.15
12913;BME280;6524;51.368;11.984;2023-05-22T20:31:12;99909.00;;;18.84;39.48
12913;BME280;6524;51.368;11.984;2023-05-22T20:36:13;99895.28;;;18.79;39.68
12913;BME280;6524;51.368;11.984;2023-05-22T20:41:15;99878.56;;;18.52;39.96
12913;BME280;6524;51.368;11.984;2023-05-22T20:51:20;99868.81;;;18.27;41.28
12913;BME280;6524;51.368;11.984;2023-05-22T20:56:21;99872.19;;;18.45;41.07
12913;BME280;6524;51.368;11.984;2023-05-22T21:01:23;99869.78;;;18.26;41.95
12913;BME280;6524;51.368;11.984;2023-05-22T21:06:23;99870.44;;;18.12;42.09
12913;BME280;6524;51.368;11.984;2023-05-22T21:11:24;99868.13;;;18.17;42.42
12913;BME280;6524;51.368;11.984;2023-05-22T21:16:25;99877.63;;;18.11;42.09
12913;BME280;6524;51.368;11.984;2023-05-22T21:21:26;99884.63;;;17.78;42.52
12913;BME280;6524;51.368;11.984;2023-05-22T21:26:26;99896.00;;;17.80;43.04
12913;BME280;6524;51.368;11.984;2023-05-22T21:31:26;99901.72;;;17.85;43.48
12913;BME280;6524;51.368;11.984;2023-05-22T21:36:27;99900.25;;;17.65;44.86
12913;BME280;6524;51.368;11.984;2023-05-22T21:41:27;99913.38;;;17.24;47.07
12913;BME280;6524;51.368;11.984;2023-05-22T21:46:27;99937.16;;;16.81;47.89
12913;BME280;6524;51.368;11.984;2023-05-22T21:51:28;99958.94;;;16.59;47.14
12913;BME280;6524;51.368;11.984;2023-05-22T21:56:28;99948.56;;;16.28;47.54
12913;BME280;6524;51.368;11.984;2023-05-22T22:01:29;99953.28;;;16.34;48.14
12913;BME280;6524;51.368;11.984;2023-05-22T22:06:29;99948.81;;;16.35;49.52
12913;BME280;6524;51.368;11.984;2023-05-22T22:11:30;99933.53;;;16.09;50.48
12913;BME280;6524;51.368;11.984;2023-05-22T22:16:30;99919.84;;;16.22;50.32
12913;BME280;6524;51.368;11.984;2023-05-22T22:21:34;99914.97;;;16.17;51.44
12913;BME280;6524;51.368;11.984;2023-05-22T22:26:35;99918.19;;;15.93;52.29
12913;BME280;6524;51.368;11.984;2023-05-22T22:31:36;99927.41;;;15.99;52.50
12913;BME280;6524;51.368;11.984;2023-05-22T22:36:37;99934.19;;;15.84;52.36
12913;BME280;6524;51.368;11.984;2023-05-22T22:41:37;99931.16;;;15.69;54.20
12913;BME280;6524;51.368;11.984;2023-05-22T22:46:38;99936.19;;;15.62;54.92
12913;BME280;6524;51.368;11.984;2023-05-22T22:51:38;99927.66;;;15.59;54.38
12913;BME280;6524;51.368;11.984;2023-05-22T22:56:38;99926.78;;;15.77;53.96
12913;BME280;6524;51.368;11.984;2023-05-22T23:01:39;99933.63;;;15.90;52.31
12913;BME280;6524;51.368;11.984;2023-05-22T23:06:39;99929.78;;;15.55;53.43
12913;BME280;6524;51.368;11.984;2023-05-22T23:11:42;99921.06;;;15.82;53.09
12913;BME280;6524;51.368;11.984;2023-05-22T23:16:43;99926.84;;;15.58;56.31
12913;BME280;6524;51.368;11.984;2023-05-22T23:21:43;99914.69;;;15.46;59.04
12913;BME280;6524;51.368;11.984;2023-05-22T23:26:44;99904.56;;;15.59;62.65
12913;BME280;6524;51.368;11.984;2023-05-22T23:31:44;99882.16;;;15.52;65.61
12913;BME280;6524;51.368;11.984;2023-05-22T23:36:46;99880.22;;;15.54;66.13
12913;BME280;6524;51.368;11.984;2023-05-22T23:41:46;99869.81;;;15.70;66.33
12913;BME280;6524;51.368;11.984;2023-05-22T23:46:48;99858.88;;;15.73;67.18
12913;BME280;6524;51.368;11.984;2023-05-22T23:51:49;99859.88;;;15.53;69.67
12913;BME280;6524;51.368;11.984;2023-05-22T23:56:49;99856.25;;;15.54;69.63
